Terminal Aerodrome Forecast
Issued by NWS

Home | Current Version | Previous Version | Text Only | Print | Product List | Glossary On
Versions: 1 2 3 4 5 6 7 8 9 10 11 12 13
000
FTPA31 PHFO 022331
TAFHJH
TAF
PHJH 022331Z 0300/0324 05015G24KT P6SM VCSH FEW025 BKN040
     FM030500 04012G18KT P6SM VCSH FEW025 SCT040
     FM032000 04015G24KT P6SM VCSH FEW025 BKN040=

USA.gov is the U.S. government's official web portal to all federal, state and local government web resources and services.